SKAR/AXM METAR and TAF weather

Enter ICAO airport designator
Station Type Date Time Source
SKAR METAR 2022/12/05 15:00 UTC NOAA

SKAR 051500Z 19003KT 9999 SCT018 BKN090 20/18 Q1020 RMK A3013


Station Type Date Time Source
SKAR Decoded METAR 2022/12/05 15:00 UTC NOAA

Armenia / El Eden, Colombia (SKAR) 04-30N 075-43W 1219M
Dec 05, 2022 - 10:00 AM EST / 2022.12.05 1500 UTC
Wind: from the S (190 degrees) at 3 MPH (3 KT):0
Visibility: greater than 7 mile(s):0
Sky conditions: mostly cloudy
Temperature: 68 F (20 C)
Dew Point: 64 F (18 C)
Relative Humidity: 88%
Pressure (altimeter): 30.12 in. Hg (1020 hPa)
ob: SKAR 051500Z 19003KT 9999 SCT018 BKN090 20/18 Q1020 RMK A3013
cycle: 15

Station Type Date Time Source
SKAR TAF 2022/12/05 12:36 UTC NOAA

TAF TAF SKAR 051030Z 0512/0612 VRB02KT 3000 BR BKN010
BECMG 0516/0517 9999 NSW SCT015
TEMPO 0520/0523 DZ SCT015 BKN080
BECMG 0609/0611 4000 BR BKN015 TX26/0520Z TN18/0610Z

Example: see airport list